createdAt,value
2022-12-04T00:01:31.696Z,81.63
2022-12-04T00:06:35.670Z,81.63
2022-12-04T00:11:37.910Z,81.58
2022-12-04T00:16:40.404Z,81.72
2022-12-04T00:21:42.074Z,81.80
2022-12-04T00:26:43.235Z,81.73
2022-12-04T00:31:45.525Z,81.73
2022-12-04T00:36:46.671Z,81.73
2022-12-04T00:41:47.947Z,81.70
2022-12-04T00:46:49.312Z,81.65
2022-12-04T00:51:50.472Z,81.66
2022-12-04T00:56:51.636Z,81.66
2022-12-04T01:02:01.601Z,81.70
2022-12-04T01:07:05.173Z,81.82
2022-12-04T01:12:06.890Z,81.85
2022-12-04T01:17:08.055Z,81.87
2022-12-04T01:22:09.370Z,81.80
2022-12-04T01:27:10.531Z,81.73
2022-12-04T01:32:11.837Z,81.68
2022-12-04T01:37:13.202Z,81.61
2022-12-04T01:42:15.829Z,81.72
2022-12-04T01:47:16.890Z,81.90
2022-12-04T01:52:22.128Z,81.97
2022-12-04T01:57:27.174Z,82.12
2022-12-04T02:02:37.288Z,82.28
2022-12-04T02:07:39.894Z,82.41
2022-12-04T02:12:43.859Z,82.43
2022-12-04T02:17:59.363Z,82.46
2022-12-04T02:23:33.470Z,82.46
2022-12-04T02:28:56.257Z,82.43
2022-12-04T02:34:12.594Z,82.44
2022-12-04T02:39:21.209Z,82.47
2022-12-04T02:44:30.241Z,82.54
2022-12-04T02:49:53.367Z,82.63
2022-12-04T02:55:06.756Z,82.77
2022-12-04T03:00:10.630Z,82.87
2022-12-04T03:05:18.923Z,82.94
2022-12-04T03:10:35.367Z,83.03
2022-12-04T03:15:47.865Z,83.10
2022-12-04T03:20:55.843Z,83.16
2022-12-04T03:26:14.571Z,83.19
2022-12-04T03:31:21.142Z,83.20
2022-12-04T03:36:27.766Z,83.17
2022-12-04T03:41:46.550Z,83.09
2022-12-04T03:47:05.405Z,83.06
2022-12-04T03:52:29.194Z,83.05
2022-12-04T03:57:37.307Z,83.04
2022-12-04T04:02:56.831Z,82.97
2022-12-04T04:08:21.609Z,82.99
2022-12-04T04:13:49.407Z,83.10
2022-12-04T04:19:12.258Z,83.07
2022-12-04T04:24:30.932Z,83.16
2022-12-04T04:29:32.502Z,83.32
2022-12-04T04:34:43.320Z,83.29
2022-12-04T04:40:31.246Z,83.35
2022-12-04T04:45:50.225Z,83.30
2022-12-04T04:50:52.917Z,83.38
2022-12-04T04:55:54.185Z,83.40
2022-12-04T05:01:02.765Z,83.43
2022-12-04T05:06:05.995Z,83.40
2022-12-04T05:11:13.964Z,83.49
2022-12-04T05:16:16.003Z,83.36
2022-12-04T05:21:17.293Z,83.29
2022-12-04T05:26:18.555Z,83.21
2022-12-04T05:31:19.885Z,83.06
2022-12-04T05:36:21.078Z,82.94
2022-12-04T05:41:22.810Z,82.89
2022-12-04T05:46:24.149Z,82.92
2022-12-04T05:51:25.377Z,83.04
2022-12-04T05:56:27.766Z,83.14
2022-12-04T06:01:28.883Z,83.23
2022-12-04T06:06:30.089Z,83.36
2022-12-04T06:11:37.229Z,83.46
2022-12-04T06:16:42.205Z,83.53
2022-12-04T06:21:45.792Z,83.48
2022-12-04T06:27:25.132Z,83.52
2022-12-04T06:32:08.801Z,83.60
2022-12-04T06:37:10.230Z,83.67
2022-12-04T06:42:11.601Z,83.75
2022-12-04T06:47:12.756Z,83.79
2022-12-04T06:52:14.016Z,83.82
2022-12-04T06:57:15.282Z,83.77
2022-12-04T07:02:16.588Z,83.74
2022-12-04T07:07:17.914Z,83.78
2022-12-04T07:12:19.092Z,83.86
2022-12-04T07:17:20.234Z,83.89
2022-12-04T07:22:21.368Z,83.94
2022-12-04T07:27:22.657Z,83.95
2022-12-04T07:32:24.021Z,84.03
2022-12-04T07:37:25.791Z,84.06
2022-12-04T07:42:28.180Z,84.15
2022-12-04T07:47:29.240Z,84.23
2022-12-04T07:52:30.916Z,84.33
2022-12-04T07:57:32.284Z,84.38
2022-12-04T08:02:33.480Z,84.34
2022-12-04T08:07:34.797Z,84.25
2022-12-04T08:12:36.129Z,84.23
2022-12-04T08:17:37.267Z,84.25
2022-12-04T08:22:38.618Z,84.33
2022-12-04T08:27:45.961Z,84.30
2022-12-04T08:32:48.699Z,84.32
2022-12-04T08:37:49.888Z,84.28
2022-12-04T08:42:51.150Z,84.25
2022-12-04T08:47:52.666Z,84.26
2022-12-04T08:52:54.059Z,84.25
2022-12-04T08:57:55.218Z,84.31
2022-12-04T09:02:57.095Z,84.25
2022-12-04T09:07:58.307Z,84.16
2022-12-04T09:12:59.529Z,83.97
2022-12-04T09:18:00.781Z,83.74
2022-12-04T09:23:04.728Z,83.60
2022-12-04T09:28:06.276Z,83.52
2022-12-04T09:33:14.915Z,83.40
2022-12-04T09:38:16.053Z,83.20
2022-12-04T09:43:48.877Z,83.07
2022-12-04T09:48:51.572Z,82.94
2022-12-04T09:54:02.155Z,82.83
2022-12-04T09:59:24.056Z,82.60
2022-12-04T10:04:25.532Z,82.52
2022-12-04T10:09:48.129Z,82.32
2022-12-04T10:15:19.500Z,82.10
2022-12-04T10:20:49.330Z,81.88
2022-12-04T10:25:54.535Z,81.56
2022-12-04T10:31:01.157Z,81.23
2022-12-04T10:36:03.197Z,80.69
2022-12-04T10:41:15.189Z,80.14
2022-12-04T10:46:30.822Z,79.29
2022-12-04T10:51:40.591Z,78.90
2022-12-04T10:57:10.259Z,78.51
2022-12-04T11:02:11.509Z,78.38
2022-12-04T11:07:21.320Z,78.20
2022-12-04T11:12:23.158Z,77.96
2022-12-04T11:17:24.219Z,77.41
2022-12-04T11:22:25.484Z,77.14
2022-12-04T11:27:33.658Z,76.99
2022-12-04T11:32:37.227Z,76.50
2022-12-04T11:37:43.662Z,76.14
2022-12-04T11:43:09.503Z,76.00
2022-12-04T11:48:16.854Z,76.07
2022-12-04T11:53:36.344Z,76.09
2022-12-04T11:58:52.599Z,75.89
2022-12-04T12:04:05.940Z,75.54
2022-12-04T12:09:16.204Z,75.17
2022-12-04T12:14:25.345Z,74.90
2022-12-04T12:19:38.468Z,74.91
2022-12-04T12:25:10.860Z,75.06
2022-12-04T12:30:18.784Z,75.26
2022-12-04T12:35:44.407Z,75.13
2022-12-04T12:40:58.501Z,74.81
2022-12-04T12:46:03.671Z,74.38
2022-12-04T12:51:35.036Z,74.04
2022-12-04T12:56:46.294Z,73.92
2022-12-04T13:02:14.012Z,73.94
2022-12-04T13:07:18.418Z,74.01
2022-12-04T13:12:22.291Z,74.15
2022-12-04T13:17:39.066Z,74.34
2022-12-04T13:23:12.214Z,74.60
2022-12-04T13:28:35.663Z,74.78
2022-12-04T13:34:04.880Z,74.98
2022-12-04T13:39:35.532Z,75.15
2022-12-04T13:44:36.687Z,75.41
2022-12-04T13:49:45.267Z,75.60
2022-12-04T13:54:58.185Z,75.83
2022-12-04T14:00:26.503Z,75.95
2022-12-04T14:05:41.057Z,76.17
2022-12-04T14:10:42.435Z,76.39
2022-12-04T14:15:44.072Z,76.71
2022-12-04T14:20:58.388Z,76.96
2022-12-04T14:26:00.733Z,77.31
2022-12-04T14:31:04.741Z,77.66
2022-12-04T14:36:10.544Z,77.99
2022-12-04T14:41:11.791Z,78.33
2022-12-04T14:46:25.114Z,78.64
2022-12-04T14:51:51.745Z,79.00
2022-12-04T14:57:05.178Z,79.32
2022-12-04T15:02:18.077Z,79.62
2022-12-04T15:07:21.285Z,79.97
2022-12-04T15:12:33.196Z,80.21
2022-12-04T15:17:34.766Z,80.46
2022-12-04T15:22:36.032Z,80.75
2022-12-04T15:27:37.395Z,80.95
2022-12-04T15:32:38.468Z,80.98
2022-12-04T15:37:40.534Z,81.08
2022-12-04T15:42:41.691Z,81.15
2022-12-04T15:47:42.703Z,81.28
2022-12-04T15:53:12.791Z,81.30
2022-12-04T15:58:18.902Z,81.39
2022-12-04T16:03:26.114Z,81.54
2022-12-04T16:08:32.835Z,81.75
2022-12-04T16:13:37.097Z,81.85
2022-12-04T16:18:38.926Z,81.82
2022-12-04T16:23:40.070Z,81.86
2022-12-04T16:28:41.497Z,81.95
2022-12-04T16:33:42.606Z,81.95
2022-12-04T16:38:43.847Z,82.02
2022-12-04T16:43:45.181Z,82.15
2022-12-04T16:48:46.349Z,82.32
2022-12-04T16:53:48.633Z,82.43
2022-12-04T16:58:49.996Z,82.39
2022-12-04T17:03:51.177Z,82.40
2022-12-04T17:08:52.324Z,82.32
2022-12-04T17:13:53.385Z,82.31
2022-12-04T17:18:54.559Z,82.32
2022-12-04T17:23:56.013Z,82.34
2022-12-04T17:28:57.779Z,82.34
2022-12-04T17:33:58.913Z,82.46
2022-12-04T17:39:03.448Z,82.52
2022-12-04T17:44:04.850Z,82.60
2022-12-04T17:49:07.495Z,82.63
2022-12-04T17:54:10.273Z,82.65
2022-12-04T17:59:11.704Z,82.69
2022-12-04T18:04:12.842Z,82.68
2022-12-04T18:09:15.850Z,82.65
2022-12-04T18:14:31.467Z,82.59
2022-12-04T18:19:32.629Z,82.54
2022-12-04T18:24:33.799Z,82.65
2022-12-04T18:29:35.770Z,82.80
2022-12-04T18:34:37.135Z,82.85
2022-12-04T18:39:38.250Z,82.86
2022-12-04T18:44:40.275Z,82.87
2022-12-04T18:49:41.549Z,82.95
2022-12-04T18:54:42.952Z,83.01
2022-12-04T18:59:44.166Z,83.08
2022-12-04T19:04:46.045Z,83.07
2022-12-04T19:10:21.704Z,83.06
2022-12-04T19:15:08.638Z,83.10
2022-12-04T19:20:10.405Z,83.17
2022-12-04T19:25:11.572Z,83.17
2022-12-04T19:30:13.352Z,83.19
2022-12-04T19:35:14.610Z,83.20
2022-12-04T19:40:15.911Z,83.27
2022-12-04T19:45:17.191Z,83.33
2022-12-04T19:50:18.398Z,83.34
2022-12-04T19:55:19.524Z,83.35
2022-12-04T20:00:20.661Z,83.36
2022-12-04T20:05:21.773Z,83.42
2022-12-04T20:10:22.848Z,83.45
2022-12-04T20:15:23.999Z,83.57
2022-12-04T20:20:25.157Z,83.80
2022-12-04T20:25:26.352Z,83.93
2022-12-04T20:30:27.802Z,83.98
2022-12-04T20:35:28.922Z,83.95
2022-12-04T20:40:30.357Z,83.97
2022-12-04T20:45:32.431Z,84.00
2022-12-04T20:50:33.654Z,83.96
2022-12-04T20:55:34.816Z,83.89
2022-12-04T21:00:36.079Z,83.81
2022-12-04T21:05:37.236Z,83.80
2022-12-04T21:10:38.402Z,83.79
2022-12-04T21:15:58.264Z,83.82
2022-12-04T21:21:00.916Z,83.86
2022-12-04T21:26:02.359Z,83.91
2022-12-04T21:31:05.434Z,84.01
2022-12-04T21:36:08.994Z,84.06
2022-12-04T21:41:30.692Z,84.15
2022-12-04T21:46:32.280Z,84.17
2022-12-04T21:51:56.339Z,84.23
2022-12-04T21:56:55.883Z,84.34
2022-12-04T22:01:57.334Z,84.42
2022-12-04T22:06:58.549Z,84.51
2022-12-04T22:11:59.809Z,84.52
2022-12-04T22:17:03.426Z,84.54
2022-12-04T22:22:04.691Z,84.60
2022-12-04T22:27:05.839Z,84.61
2022-12-04T22:32:06.975Z,84.63
2022-12-04T22:37:10.371Z,84.69
2022-12-04T22:42:11.479Z,84.75
2022-12-04T22:47:12.689Z,84.81
2022-12-04T22:52:15.034Z,84.85
2022-12-04T22:57:16.852Z,84.97
2022-12-04T23:02:18.581Z,85.11
2022-12-04T23:07:19.752Z,85.16
2022-12-04T23:12:20.882Z,85.13
2022-12-04T23:17:22.518Z,85.13
2022-12-04T23:22:23.735Z,85.10
2022-12-04T23:27:24.895Z,85.06
2022-12-04T23:32:25.976Z,85.07
2022-12-04T23:37:27.068Z,85.07
2022-12-04T23:42:31.891Z,85.08
2022-12-04T23:47:36.103Z,85.04
2022-12-04T23:52:37.262Z,85.02
2022-12-04T23:57:38.344Z,85.00
